Aérodrome :
LOGIN :

S'inscrire | Disclaimer

   EN    FR    IT 

 










Légende :    VFR   VFR Marginal   IFR   IFR Intensif   IFR Très Intensif
Visi : 
Plafond : 
>= 8 km
>= 3000ft
5 à 8 km
1000 à 3000 ft
1500m à 5 km
500 à 1000 ft
800 à 1500m
200 à 500 ft
< 800m
< 200 ft
Symboles :   Orages  Brouillard  Fortes neiges  Fortes précipitations  Vent > 20 kt
SIGMETs :   Divers  Orages  Givrage  Turbulence  Onde Orograph.  Cendres Volcan.







- Altitude de l'aérodrome : 299 ft
- Code IATA : EDM
- Voir les cartes d'approche


LFRI - La Roche Sur Yon - Les Ajoncs

DERNIER METAR :
  • 011730Z AUTO 24018KT 200V260 2900 -RA BR OVC005 11/10 Q1009 TEMPO 23018G33KT RA

METARs EXPIRÉS :
  • 011700Z AUTO 23018G29KT 3600 RA BR OVC006/// ///TCU 11/10 Q1009 TEMPO 2000 RA OVC005
  • 011630Z AUTO 23018KT 200V260 3600 -RA BR OVC007/// ///TCU 11/10 Q1009 TEMPO 23018G33KT 2000 RA OVC005
  • 011600Z AUTO 23018G30KT 4500 -RA BR OVC008/// ///TCU 11/10 Q1009 TEMPO 2000 RA OVC005
  • 011530Z AUTO 23017G28KT 6000 -RA OVC008 11/10 Q1008 TEMPO 2000 RA
  • 011500Z AUTO 23018G30KT 200V270 5000 -RA BR OVC008 11/10 Q1008 TEMPO 2000 RA

TAF TAF LFRI
Valide du 01 à 18h jusqu'au 02 à 18h UTC


011700Z 0118/0218 22015G25KT 9999 -RA BKN012 BKN020
TEMPO 0118/0122 23018G33KT 2000 RA OVC005
BECMG 0121/0123 26010KT NSW SCT020
PROB30
TEMPO 0205/0208 4000 BR
Pas de NOTAMs connus pour ce terrain.
1 SIGMET publié pour la FIR Brest (LFRR) :
 
Turbulence forte
LFRR SIGMET 2 VALID 011600/012000 LFPW
LFRR BREST FIR/UIR SEV TURB OBS WI N4715 W00015 - N4630 W00015 - N4630 W00130 - N4530 W00145 - N4715 W00400 - N4745 W00115 SFC/FL040 STNR NC=



MET'MAP, la Météo Aéronautique d'un coup d'oeil ! - Copyright ORBIFLY Décembre 2007 - Disclaimer

ORBIFLY MET'MAP TEAM :

Programmation & Développement : Alexandra Zaïnal
Conception & Développement : Baudouin d'Aumeries
Co-Programmation & Développement : Marc-Olivier Méhu
Soutien technique & logistique : Manuel Goepfert

Contact : metmap@orbifly.com




SOURCES & CREDITS :

   NOAA